createdAt,value
2018-06-29T00:00:09.771Z,20.55
2018-06-29T00:02:02.719Z,20.64
2018-06-29T00:03:02.737Z,20.62
2018-06-29T00:04:55.653Z,20.57
2018-06-29T00:05:55.682Z,20.59
2018-06-29T00:07:48.633Z,20.59
2018-06-29T00:08:48.634Z,20.50
2018-06-29T00:10:41.564Z,20.41
2018-06-29T00:11:41.589Z,20.43
2018-06-29T00:13:34.535Z,20.47
2018-06-29T00:14:34.541Z,20.47
2018-06-29T00:16:27.958Z,20.47
2018-06-29T00:17:27.977Z,20.39
2018-06-29T00:19:20.958Z,20.41
2018-06-29T00:20:20.960Z,20.31
2018-06-29T00:22:13.909Z,20.20
2018-06-29T00:23:13.915Z,20.14
2018-06-29T00:25:06.843Z,20.17
2018-06-29T00:26:06.868Z,20.14
2018-06-29T00:27:59.818Z,20.14
2018-06-29T00:28:59.824Z,20.08
2018-06-29T00:30:52.754Z,20.11
2018-06-29T00:31:52.779Z,20.10
2018-06-29T00:33:45.726Z,20.16
2018-06-29T00:34:45.734Z,20.14
2018-06-29T00:36:40.203Z,20.05
2018-06-29T00:37:40.222Z,20.03
2018-06-29T00:39:33.244Z,20.03
2018-06-29T00:40:33.178Z,19.98
2018-06-29T00:42:26.824Z,19.95
2018-06-29T00:43:26.610Z,19.94
2018-06-29T00:45:19.571Z,19.94
2018-06-29T00:46:19.595Z,19.88
2018-06-29T00:48:12.545Z,19.81
2018-06-29T00:49:12.553Z,19.73
2018-06-29T00:51:05.992Z,19.74
2018-06-29T00:52:06.019Z,19.69
2018-06-29T00:53:58.966Z,19.62
2018-06-29T00:54:58.970Z,19.56
2018-06-29T00:56:51.886Z,19.62
2018-06-29T00:57:51.915Z,19.54
2018-06-29T00:59:44.873Z,19.47
2018-06-29T01:00:44.881Z,19.46
2018-06-29T01:02:37.822Z,19.48
2018-06-29T01:03:37.832Z,19.43
2018-06-29T01:05:30.781Z,19.46
2018-06-29T01:06:30.786Z,19.37
2018-06-29T01:08:23.736Z,19.32
2018-06-29T01:09:23.763Z,19.31
2018-06-29T01:11:16.673Z,19.25
2018-06-29T01:12:16.698Z,19.21
2018-06-29T01:14:09.643Z,19.04
2018-06-29T01:15:09.651Z,18.99
2018-06-29T01:17:02.578Z,18.80
2018-06-29T01:18:02.602Z,18.82
2018-06-29T01:19:55.552Z,18.78
2018-06-29T01:20:55.557Z,18.78
2018-06-29T01:22:48.485Z,18.82
2018-06-29T01:23:48.512Z,18.69
2018-06-29T01:25:41.461Z,18.48
2018-06-29T01:26:41.466Z,18.47
2018-06-29T01:28:34.450Z,18.37
2018-06-29T01:29:34.418Z,18.33
2018-06-29T01:31:27.369Z,18.37
2018-06-29T01:32:27.373Z,18.37
2018-06-29T01:34:20.320Z,18.35
2018-06-29T01:35:20.326Z,18.39
2018-06-29T01:37:13.256Z,18.39
2018-06-29T01:38:13.279Z,18.44
2018-06-29T01:40:06.230Z,18.42
2018-06-29T01:41:06.238Z,18.44
2018-06-29T01:42:59.169Z,18.52
2018-06-29T01:43:59.189Z,18.48
2018-06-29T01:45:52.148Z,18.52
2018-06-29T01:46:52.145Z,18.57
2018-06-29T01:48:45.072Z,18.58
2018-06-29T01:49:45.098Z,18.54
2018-06-29T01:51:38.045Z,18.50
2018-06-29T01:52:38.101Z,18.50
2018-06-29T01:54:30.999Z,18.50
2018-06-29T01:55:31.004Z,18.51
2018-06-29T01:57:23.938Z,18.48
2018-06-29T01:58:23.961Z,18.51
2018-06-29T02:00:16.910Z,18.47
2018-06-29T02:01:16.914Z,18.51
2018-06-29T02:03:09.846Z,18.50
2018-06-29T02:04:09.867Z,18.47
2018-06-29T02:06:02.818Z,18.41
2018-06-29T02:07:02.823Z,18.50
2018-06-29T02:08:55.751Z,18.45
2018-06-29T02:09:55.775Z,18.36
2018-06-29T02:11:48.724Z,18.39
2018-06-29T02:12:48.728Z,18.41
2018-06-29T02:14:41.683Z,18.37
2018-06-29T02:15:41.685Z,18.33
2018-06-29T02:17:34.632Z,18.21
2018-06-29T02:18:34.638Z,18.15
2018-06-29T02:20:27.589Z,18.32
2018-06-29T02:21:27.592Z,18.23
2018-06-29T02:23:20.507Z,18.27
2018-06-29T02:24:20.535Z,18.20
2018-06-29T02:26:13.502Z,18.20
2018-06-29T02:27:13.498Z,18.12
2018-06-29T02:29:06.440Z,18.17
2018-06-29T02:30:06.453Z,18.29
2018-06-29T02:31:59.403Z,18.15
2018-06-29T02:32:59.407Z,18.18
2018-06-29T02:34:52.321Z,18.17
2018-06-29T02:35:52.349Z,18.00
2018-06-29T02:37:45.310Z,18.11
2018-06-29T02:38:45.316Z,18.08
2018-06-29T02:40:38.266Z,18.11
2018-06-29T02:41:38.276Z,18.03
2018-06-29T02:43:31.203Z,17.99
2018-06-29T02:44:31.226Z,18.10
2018-06-29T02:46:24.176Z,18.03
2018-06-29T02:47:24.183Z,18.02
2018-06-29T02:49:17.621Z,17.99
2018-06-29T02:50:17.648Z,17.97
2018-06-29T02:52:10.594Z,18.11
2018-06-29T02:53:10.604Z,17.96
2018-06-29T02:55:03.530Z,18.07
2018-06-29T02:56:03.553Z,18.05
2018-06-29T02:57:56.497Z,18.10
2018-06-29T02:58:56.494Z,18.08
2018-06-29T03:00:49.438Z,17.96
2018-06-29T03:01:49.463Z,18.07
2018-06-29T03:03:42.409Z,17.97
2018-06-29T03:04:42.419Z,17.97
2018-06-29T03:06:35.366Z,17.93
2018-06-29T03:07:35.369Z,17.93
2018-06-29T03:09:28.810Z,17.92
2018-06-29T03:10:28.838Z,17.92
2018-06-29T03:12:21.791Z,17.95
2018-06-29T03:13:21.788Z,17.90
2018-06-29T03:15:14.734Z,17.84
2018-06-29T03:16:14.747Z,17.90
2018-06-29T03:18:08.209Z,17.86
2018-06-29T03:19:08.213Z,17.79
2018-06-29T03:21:01.144Z,17.81
2018-06-29T03:22:01.182Z,17.79
2018-06-29T03:23:54.112Z,17.79
2018-06-29T03:24:54.118Z,17.89
2018-06-29T03:26:47.068Z,17.81
2018-06-29T03:27:47.074Z,17.90
2018-06-29T03:29:40.000Z,17.96
2018-06-29T03:30:40.027Z,17.96
2018-06-29T03:32:32.976Z,17.90
2018-06-29T03:33:33.020Z,17.97
2018-06-29T03:35:25.909Z,17.96
2018-06-29T03:36:25.930Z,17.92
2018-06-29T03:38:18.883Z,17.92
2018-06-29T03:39:18.888Z,17.96
2018-06-29T03:41:12.331Z,17.84
2018-06-29T03:42:12.354Z,17.89
2018-06-29T03:44:05.296Z,17.77
2018-06-29T03:45:05.297Z,17.75
2018-06-29T03:46:58.237Z,17.92
2018-06-29T03:47:58.265Z,18.08
2018-06-29T03:49:51.211Z,18.58
2018-06-29T03:50:51.217Z,18.92
2018-06-29T03:52:44.165Z,19.46
2018-06-29T03:53:44.171Z,19.68
2018-06-29T03:55:37.102Z,20.16
2018-06-29T03:56:37.124Z,20.43
2018-06-29T03:58:30.085Z,20.97
2018-06-29T03:59:30.083Z,21.16
2018-06-29T04:01:23.525Z,21.62
2018-06-29T04:02:23.551Z,21.82
2018-06-29T04:04:16.494Z,22.07
2018-06-29T04:05:16.504Z,22.25
2018-06-29T04:07:09.436Z,22.33
2018-06-29T04:08:09.458Z,22.49
2018-06-29T04:10:03.050Z,22.68
2018-06-29T04:11:02.956Z,22.80
2018-06-29T04:12:55.900Z,23.07
2018-06-29T04:13:55.878Z,23.20
2018-06-29T04:15:48.826Z,23.54
2018-06-29T04:16:48.857Z,23.53
2018-06-29T04:18:41.782Z,23.72
2018-06-29T04:19:41.792Z,23.76
2018-06-29T04:21:34.717Z,23.98
2018-06-29T04:22:34.741Z,24.15
2018-06-29T04:24:27.690Z,24.40
2018-06-29T04:25:27.697Z,24.45
2018-06-29T04:27:20.725Z,24.80
2018-06-29T04:28:20.751Z,24.90
2018-06-29T04:30:13.802Z,25.32
2018-06-29T04:31:13.810Z,25.45
2018-06-29T04:33:07.257Z,25.52
2018-06-29T04:34:07.402Z,25.47
2018-06-29T04:36:00.324Z,25.75
2018-06-29T04:37:00.335Z,25.94
2018-06-29T04:38:53.386Z,25.95
2018-06-29T04:39:53.391Z,26.06
2018-06-29T04:41:46.427Z,26.07
2018-06-29T04:42:46.506Z,26.30
2018-06-29T04:44:39.496Z,26.70
2018-06-29T04:45:39.506Z,26.80
2018-06-29T04:47:32.943Z,26.89
2018-06-29T04:48:32.970Z,27.09
2018-06-29T04:50:26.020Z,27.24
2018-06-29T04:51:26.032Z,27.34
2018-06-29T04:53:18.961Z,27.67
2018-06-29T04:54:18.982Z,27.93
2018-06-29T04:56:12.333Z,28.37
2018-06-29T04:57:12.345Z,28.52
2018-06-29T04:59:05.391Z,28.70
2018-06-29T05:00:05.403Z,28.62
2018-06-29T05:01:58.442Z,28.71
2018-06-29T05:02:58.474Z,28.98
2018-06-29T05:04:51.504Z,29.24
2018-06-29T05:05:51.515Z,29.46
2018-06-29T05:07:44.542Z,29.65
2018-06-29T05:08:44.576Z,29.73
2018-06-29T05:10:38.029Z,29.76
2018-06-29T05:11:38.041Z,29.68
2018-06-29T05:13:32.500Z,29.60
2018-06-29T05:14:32.536Z,29.60
2018-06-29T05:16:25.579Z,29.71
2018-06-29T05:17:25.589Z,29.90
2018-06-29T05:19:18.612Z,29.58
2018-06-29T05:20:18.645Z,29.42
2018-06-29T05:22:11.686Z,29.28
2018-06-29T05:23:11.700Z,29.16
2018-06-29T05:25:04.745Z,29.05
2018-06-29T05:26:04.758Z,29.00
2018-06-29T05:27:57.780Z,29.06
2018-06-29T05:28:57.814Z,29.06
2018-06-29T05:30:50.858Z,29.06
2018-06-29T05:31:50.872Z,29.26
2018-06-29T05:33:43.808Z,29.00
2018-06-29T05:34:43.836Z,29.09
2018-06-29T05:36:36.789Z,29.15
2018-06-29T05:37:36.804Z,29.26
2018-06-29T05:39:29.750Z,29.09
2018-06-29T05:40:29.776Z,28.98
2018-06-29T05:42:22.730Z,29.26
2018-06-29T05:43:22.739Z,29.30
2018-06-29T05:45:15.707Z,29.52
2018-06-29T05:46:15.815Z,29.60
2018-06-29T05:48:08.649Z,29.87
2018-06-29T05:49:08.676Z,29.97
2018-06-29T05:51:02.125Z,30.35
2018-06-29T05:52:02.140Z,30.38
2018-06-29T05:53:55.568Z,30.88
2018-06-29T05:54:55.606Z,30.99
2018-06-29T05:56:48.556Z,31.10
2018-06-29T05:57:48.568Z,30.97
2018-06-29T05:59:41.503Z,30.70
2018-06-29T06:00:41.539Z,30.89
2018-06-29T06:02:34.488Z,30.99
2018-06-29T06:03:34.503Z,31.10
2018-06-29T06:05:27.439Z,31.20
2018-06-29T06:06:27.467Z,31.09
2018-06-29T06:08:20.425Z,30.88
2018-06-29T06:09:20.440Z,30.88
2018-06-29T06:11:13.396Z,30.97
2018-06-29T06:12:13.411Z,30.92
2018-06-29T06:14:06.349Z,30.82
2018-06-29T06:15:06.391Z,30.72
2018-06-29T06:16:59.342Z,30.80
2018-06-29T06:17:59.356Z,30.88
2018-06-29T06:19:52.293Z,30.99
2018-06-29T06:20:52.351Z,31.12
2018-06-29T06:22:45.286Z,31.02
2018-06-29T06:23:45.298Z,31.13
2018-06-29T06:25:38.234Z,30.95
2018-06-29T06:26:38.271Z,30.94
2018-06-29T06:28:31.233Z,31.07
2018-06-29T06:29:31.251Z,31.09
2018-06-29T06:31:24.187Z,31.28
2018-06-29T06:32:24.223Z,31.47
2018-06-29T06:34:17.186Z,31.46
2018-06-29T06:35:17.198Z,31.47
2018-06-29T06:37:10.171Z,31.23
2018-06-29T06:38:10.175Z,30.98
2018-06-29T06:40:03.112Z,31.10
2018-06-29T06:41:03.149Z,31.12
2018-06-29T06:42:56.600Z,31.20
2018-06-29T06:43:56.621Z,31.16
2018-06-29T06:45:49.560Z,31.13
2018-06-29T06:46:49.662Z,31.12
2018-06-29T06:48:42.560Z,31.06
2018-06-29T06:49:42.583Z,31.12
2018-06-29T06:51:35.519Z,30.94
2018-06-29T06:52:35.559Z,30.84
2018-06-29T06:54:28.517Z,30.58
2018-06-29T06:55:28.532Z,30.47
2018-06-29T06:57:21.971Z,30.08
2018-06-29T06:58:22.004Z,30.07
2018-06-29T07:00:14.963Z,30.11
2018-06-29T07:01:14.981Z,30.10
2018-06-29T07:03:07.939Z,30.23
2018-06-29T07:04:07.954Z,30.31
2018-06-29T07:06:01.394Z,30.45
2018-06-29T07:07:01.430Z,30.35
2018-06-29T07:08:54.391Z,30.17
2018-06-29T07:09:54.449Z,30.11
2018-06-29T07:11:47.352Z,29.76
2018-06-29T07:12:47.417Z,29.89
2018-06-29T07:14:40.351Z,29.82
2018-06-29T07:15:40.373Z,29.86
2018-06-29T07:17:33.311Z,30.05
2018-06-29T07:18:33.349Z,30.07
2018-06-29T07:20:26.312Z,30.00
2018-06-29T07:21:26.342Z,29.98
2018-06-29T07:23:19.276Z,30.23
2018-06-29T07:24:19.313Z,30.26
2018-06-29T07:26:12.276Z,29.97
2018-06-29T07:27:12.296Z,29.92
2018-06-29T07:29:05.265Z,29.97
2018-06-29T07:30:05.346Z,29.76
2018-06-29T07:31:58.221Z,29.70
2018-06-29T07:32:58.259Z,29.68
2018-06-29T07:34:52.711Z,29.49
2018-06-29T07:35:52.728Z,29.36
2018-06-29T07:37:45.672Z,29.30
2018-06-29T07:38:45.739Z,29.11
2018-06-29T07:40:38.657Z,29.04
2018-06-29T07:41:38.670Z,29.04
2018-06-29T07:43:32.103Z,28.93
2018-06-29T07:44:32.144Z,28.81
2018-06-29T07:46:25.085Z,28.64
2018-06-29T07:47:25.096Z,28.56
2018-06-29T07:49:18.050Z,28.64
2018-06-29T07:50:18.060Z,28.54
2018-06-29T07:52:11.013Z,28.33
2018-06-29T07:53:11.023Z,28.24
2018-06-29T07:55:03.987Z,28.22
2018-06-29T07:56:03.980Z,28.24
2018-06-29T07:57:56.910Z,28.04
2018-06-29T07:58:56.952Z,28.00
2018-06-29T08:00:49.893Z,28.04
2018-06-29T08:01:49.900Z,28.06
2018-06-29T08:03:42.828Z,28.03
2018-06-29T08:04:42.859Z,28.02
2018-06-29T08:06:35.809Z,27.81
2018-06-29T08:07:35.816Z,27.67
2018-06-29T08:09:28.746Z,27.50
2018-06-29T08:10:28.772Z,27.62
2018-06-29T08:12:21.722Z,27.74
2018-06-29T08:13:21.729Z,27.70
2018-06-29T08:15:15.148Z,27.77
2018-06-29T08:16:15.181Z,27.85
2018-06-29T08:18:08.129Z,27.84
2018-06-29T08:19:08.138Z,27.85
2018-06-29T08:21:01.580Z,27.55
2018-06-29T08:22:01.590Z,27.59
2018-06-29T08:23:54.520Z,27.60
2018-06-29T08:24:54.546Z,27.66
2018-06-29T08:26:47.511Z,27.66
2018-06-29T08:27:47.524Z,27.62
2018-06-29T08:29:40.942Z,27.40
2018-06-29T08:30:40.988Z,27.41
2018-06-29T08:32:33.921Z,27.29
2018-06-29T08:33:33.928Z,27.32
2018-06-29T08:35:26.852Z,27.28
2018-06-29T08:36:26.883Z,27.37
2018-06-29T08:38:19.838Z,27.24
2018-06-29T08:39:19.850Z,27.24
2018-06-29T08:41:12.799Z,27.21
2018-06-29T08:42:12.806Z,27.25
2018-06-29T08:44:05.788Z,27.29
2018-06-29T08:45:05.762Z,27.27
2018-06-29T08:46:58.882Z,27.34
2018-06-29T08:47:58.715Z,27.50
2018-06-29T08:49:51.642Z,27.66
2018-06-29T08:50:51.672Z,27.72
2018-06-29T08:52:44.615Z,27.77
2018-06-29T08:53:44.626Z,27.69
2018-06-29T08:55:37.553Z,27.59
2018-06-29T08:56:37.581Z,27.50
2018-06-29T08:58:30.523Z,27.50
2018-06-29T08:59:30.540Z,27.51
2018-06-29T09:01:23.486Z,27.54
2018-06-29T09:02:23.492Z,27.49
2018-06-29T09:04:16.447Z,27.46
2018-06-29T09:05:16.448Z,27.46
2018-06-29T09:07:09.391Z,27.50
2018-06-29T09:08:09.408Z,27.44
2018-06-29T09:10:02.331Z,27.47
2018-06-29T09:11:02.421Z,27.41
2018-06-29T09:12:55.306Z,27.29
2018-06-29T09:13:55.311Z,27.39
2018-06-29T09:15:48.237Z,27.49
2018-06-29T09:16:48.271Z,27.54
2018-06-29T09:18:41.221Z,27.60
2018-06-29T09:19:41.232Z,27.67
2018-06-29T09:21:34.157Z,27.85
2018-06-29T09:22:34.187Z,27.85
2018-06-29T09:24:27.194Z,27.96
2018-06-29T09:25:27.147Z,27.94
2018-06-29T09:27:20.085Z,27.88
2018-06-29T09:28:20.097Z,27.93
2018-06-29T09:30:13.025Z,27.96
2018-06-29T09:31:13.055Z,27.94
2018-06-29T09:33:06.003Z,27.96
2018-06-29T09:34:06.009Z,27.90
2018-06-29T09:35:58.933Z,27.93
2018-06-29T09:36:58.965Z,27.97
2018-06-29T09:38:52.401Z,27.97
2018-06-29T09:39:52.414Z,27.93
2018-06-29T09:41:45.339Z,27.90
2018-06-29T09:42:45.369Z,27.99
2018-06-29T09:44:38.314Z,28.03
2018-06-29T09:45:38.324Z,28.03
2018-06-29T09:47:31.249Z,28.04
2018-06-29T09:48:31.280Z,27.96
2018-06-29T09:50:24.230Z,28.15
2018-06-29T09:51:24.236Z,28.24
2018-06-29T09:53:17.183Z,28.18
2018-06-29T09:54:17.191Z,28.18
2018-06-29T09:56:10.114Z,28.25
2018-06-29T09:57:10.145Z,28.22
2018-06-29T09:59:03.100Z,28.11
2018-06-29T10:00:03.105Z,28.18
2018-06-29T10:01:56.027Z,28.27
2018-06-29T10:02:56.057Z,28.34
2018-06-29T10:04:49.007Z,28.41
2018-06-29T10:05:49.025Z,28.34
2018-06-29T10:07:41.942Z,28.34
2018-06-29T10:08:41.970Z,28.34
2018-06-29T10:10:34.920Z,28.55
2018-06-29T10:11:34.933Z,28.55
2018-06-29T10:13:27.907Z,28.62
2018-06-29T10:14:28.009Z,28.68
2018-06-29T10:16:21.335Z,28.68
2018-06-29T10:17:21.366Z,28.61
2018-06-29T10:19:14.314Z,28.66
2018-06-29T10:20:14.402Z,28.64
2018-06-29T10:22:07.265Z,28.68
2018-06-29T10:23:07.277Z,28.70
2018-06-29T10:25:00.265Z,28.77
2018-06-29T10:26:00.276Z,28.71
2018-06-29T10:27:53.313Z,28.59
2018-06-29T10:28:53.337Z,28.49
2018-06-29T10:30:46.796Z,28.64
2018-06-29T10:31:46.799Z,28.59
2018-06-29T10:33:39.834Z,28.71
2018-06-29T10:34:39.861Z,28.68
2018-06-29T10:36:32.903Z,28.77
2018-06-29T10:37:32.913Z,28.66
2018-06-29T10:39:27.414Z,28.56
2018-06-29T10:40:27.405Z,28.54
2018-06-29T10:42:20.838Z,28.49
2018-06-29T10:43:20.880Z,28.43
2018-06-29T10:45:13.915Z,28.51
2018-06-29T10:46:13.926Z,28.64
2018-06-29T10:48:06.952Z,28.62
2018-06-29T10:49:06.981Z,28.68
2018-06-29T10:51:00.030Z,28.81
2018-06-29T10:52:00.040Z,28.85
2018-06-29T10:53:53.064Z,28.78
2018-06-29T10:54:53.097Z,28.77
2018-06-29T10:56:46.149Z,28.92
2018-06-29T10:57:46.154Z,29.05
2018-06-29T10:59:39.180Z,28.98
2018-06-29T11:00:39.210Z,29.05
2018-06-29T11:02:32.253Z,29.08
2018-06-29T11:03:32.266Z,29.08
2018-06-29T11:05:25.342Z,28.95
2018-06-29T11:06:25.325Z,29.05
2018-06-29T11:08:18.348Z,29.08
2018-06-29T11:09:18.382Z,29.05
2018-06-29T11:11:11.334Z,29.19
2018-06-29T11:12:11.343Z,29.19
2018-06-29T11:14:04.358Z,29.18
2018-06-29T11:15:04.390Z,29.26
2018-06-29T11:16:57.437Z,29.19
2018-06-29T11:17:57.449Z,29.15
2018-06-29T11:19:50.470Z,29.04
2018-06-29T11:20:50.504Z,29.08
2018-06-29T11:22:43.590Z,29.06
2018-06-29T11:23:43.560Z,28.98
2018-06-29T11:25:36.604Z,28.96
2018-06-29T11:26:36.616Z,28.88
2018-06-29T11:28:30.081Z,28.83
2018-06-29T11:29:30.112Z,28.96
2018-06-29T11:31:24.560Z,28.96
2018-06-29T11:32:24.574Z,29.11
2018-06-29T11:34:17.596Z,29.24
2018-06-29T11:35:17.632Z,29.18
2018-06-29T11:37:10.677Z,29.09
2018-06-29T11:38:10.687Z,29.15
2018-06-29T11:40:03.713Z,29.16
2018-06-29T11:41:03.743Z,29.06
2018-06-29T11:42:58.192Z,28.96
2018-06-29T11:43:58.195Z,28.96
2018-06-29T11:45:51.147Z,28.92
2018-06-29T11:46:51.156Z,28.92
2018-06-29T11:48:44.144Z,28.95
2018-06-29T11:49:44.116Z,28.88
2018-06-29T11:51:37.064Z,29.05
2018-06-29T11:52:37.069Z,29.08
2018-06-29T11:54:29.994Z,29.14
2018-06-29T11:55:30.035Z,29.16
2018-06-29T11:57:22.974Z,29.28
2018-06-29T11:58:22.983Z,29.28
2018-06-29T12:00:15.912Z,29.37
2018-06-29T12:01:15.939Z,29.42
2018-06-29T12:03:08.892Z,29.30
2018-06-29T12:04:08.898Z,29.28
2018-06-29T12:06:01.823Z,29.24
2018-06-29T12:07:01.854Z,29.26
2018-06-29T12:08:55.293Z,29.19
2018-06-29T12:09:55.307Z,29.16
2018-06-29T12:11:48.274Z,29.30
2018-06-29T12:12:48.287Z,29.28
2018-06-29T12:14:41.219Z,29.34
2018-06-29T12:15:41.248Z,29.42
2018-06-29T12:17:34.195Z,29.45
2018-06-29T12:18:34.208Z,29.43
2018-06-29T12:20:27.138Z,29.49
2018-06-29T12:21:27.163Z,29.43
2018-06-29T12:23:20.165Z,29.46
2018-06-29T12:24:20.127Z,29.52
2018-06-29T12:26:13.547Z,29.49
2018-06-29T12:27:13.578Z,29.58
2018-06-29T12:29:06.525Z,29.74
2018-06-29T12:30:06.536Z,29.74
2018-06-29T12:31:59.631Z,29.68
2018-06-29T12:32:59.496Z,29.71
2018-06-29T12:34:52.501Z,29.63
2018-06-29T12:35:52.543Z,29.65
2018-06-29T12:37:45.582Z,29.64
2018-06-29T12:38:45.591Z,29.71
2018-06-29T12:40:38.615Z,29.83
2018-06-29T12:41:38.876Z,29.85
2018-06-29T12:43:31.690Z,29.80
2018-06-29T12:44:31.703Z,29.76
2018-06-29T12:46:24.739Z,29.76
2018-06-29T12:47:24.760Z,29.78
2018-06-29T12:49:17.802Z,29.86
2018-06-29T12:50:17.832Z,29.78
2018-06-29T12:52:11.375Z,29.86
2018-06-29T12:53:11.441Z,29.73
2018-06-29T12:55:04.416Z,29.64
2018-06-29T12:56:04.441Z,29.65
2018-06-29T12:57:57.487Z,29.49
2018-06-29T12:58:57.498Z,29.43
2018-06-29T13:00:50.544Z,29.39
2018-06-29T13:01:50.560Z,29.49
2018-06-29T13:03:43.598Z,29.60
2018-06-29T13:04:43.669Z,29.64
2018-06-29T13:06:37.229Z,29.65
2018-06-29T13:07:37.439Z,29.79
2018-06-29T13:09:30.224Z,29.70
2018-06-29T13:10:30.236Z,29.67
2018-06-29T13:12:23.688Z,29.73
2018-06-29T13:13:23.703Z,29.74
2018-06-29T13:15:17.157Z,29.73
2018-06-29T13:16:17.189Z,29.70
2018-06-29T13:18:10.629Z,29.78
2018-06-29T13:19:10.687Z,29.68
2018-06-29T13:21:03.664Z,29.80
2018-06-29T13:22:03.693Z,29.78
2018-06-29T13:23:56.739Z,29.73
2018-06-29T13:24:56.813Z,29.70
2018-06-29T13:26:49.776Z,29.79
2018-06-29T13:27:49.807Z,29.82
2018-06-29T13:29:43.274Z,29.86
2018-06-29T13:30:43.326Z,29.92
2018-06-29T13:32:36.298Z,29.97
2018-06-29T13:33:36.326Z,29.95
2018-06-29T13:35:30.873Z,30.17
2018-06-29T13:36:30.818Z,30.13
2018-06-29T13:38:24.446Z,30.11
2018-06-29T13:39:24.482Z,30.17
2018-06-29T13:41:17.416Z,30.07
2018-06-29T13:42:17.514Z,30.11
2018-06-29T13:44:10.629Z,29.95
2018-06-29T13:45:10.541Z,29.94
2018-06-29T13:47:03.523Z,29.90
2018-06-29T13:48:03.616Z,29.85
2018-06-29T13:49:57.009Z,29.86
2018-06-29T13:50:57.021Z,29.92
2018-06-29T13:52:50.053Z,29.90
2018-06-29T13:53:50.113Z,29.95
2018-06-29T13:55:43.122Z,30.10
2018-06-29T13:56:43.320Z,30.15
2018-06-29T13:58:40.142Z,30.35
2018-06-29T13:59:39.414Z,30.31
2018-06-29T14:01:32.393Z,30.43
2018-06-29T14:02:32.557Z,30.39
2018-06-29T14:04:25.475Z,30.45
2018-06-29T14:05:25.481Z,30.39
2018-06-29T14:07:18.615Z,30.39
2018-06-29T14:08:18.667Z,30.47
2018-06-29T14:10:11.988Z,30.49
2018-06-29T14:11:12.002Z,30.37
2018-06-29T14:13:05.032Z,30.38
2018-06-29T14:14:05.063Z,30.29
2018-06-29T14:15:59.542Z,30.35
2018-06-29T14:16:59.549Z,30.32
2018-06-29T14:18:52.572Z,30.34
2018-06-29T14:19:52.605Z,30.38
2018-06-29T14:21:45.650Z,30.37
2018-06-29T14:22:45.788Z,30.38
2018-06-29T14:24:38.689Z,30.53
2018-06-29T14:25:38.716Z,30.60
2018-06-29T14:27:32.171Z,30.70
2018-06-29T14:28:32.183Z,30.72
2018-06-29T14:30:25.241Z,30.79
2018-06-29T14:31:25.241Z,30.80
2018-06-29T14:33:19.194Z,30.83
2018-06-29T14:34:19.241Z,30.89
2018-06-29T14:36:12.261Z,30.80
2018-06-29T14:37:12.272Z,30.80
2018-06-29T14:39:05.305Z,30.80
2018-06-29T14:40:05.358Z,30.82
2018-06-29T14:41:58.374Z,30.72
2018-06-29T14:42:58.392Z,30.61
2018-06-29T14:44:51.444Z,30.70
2018-06-29T14:45:51.444Z,30.62
2018-06-29T14:47:44.508Z,30.45
2018-06-29T14:48:44.500Z,30.32
2018-06-29T14:50:37.933Z,30.37
2018-06-29T14:51:37.965Z,30.42
2018-06-29T14:53:31.011Z,30.57
2018-06-29T14:54:31.025Z,30.73
2018-06-29T14:56:24.067Z,30.67
2018-06-29T14:57:24.087Z,30.75
2018-06-29T14:59:17.106Z,30.62
2018-06-29T15:00:17.205Z,30.57
2018-06-29T15:02:10.590Z,30.61
2018-06-29T15:03:10.605Z,30.62
2018-06-29T15:05:03.750Z,30.54
2018-06-29T15:06:03.723Z,30.69
2018-06-29T15:07:56.706Z,30.57
2018-06-29T15:08:56.716Z,30.61
2018-06-29T15:10:49.741Z,30.64
2018-06-29T15:11:49.774Z,30.58
2018-06-29T15:13:43.223Z,30.53
2018-06-29T15:14:43.243Z,30.45
2018-06-29T15:16:36.840Z,30.32
2018-06-29T15:17:36.871Z,30.43
2018-06-29T15:19:29.855Z,30.51
2018-06-29T15:20:29.863Z,30.51
2018-06-29T15:22:22.910Z,30.55
2018-06-29T15:23:22.922Z,30.54
2018-06-29T15:25:15.961Z,30.47
2018-06-29T15:26:15.980Z,30.61
2018-06-29T15:28:09.025Z,30.64
2018-06-29T15:29:09.036Z,30.69
2018-06-29T15:31:02.473Z,30.76
2018-06-29T15:32:02.505Z,30.89
2018-06-29T15:33:55.544Z,31.01
2018-06-29T15:34:55.564Z,30.99
2018-06-29T15:36:48.992Z,31.01
2018-06-29T15:37:49.024Z,31.07
2018-06-29T15:39:42.583Z,30.94
2018-06-29T15:40:42.597Z,30.82
2018-06-29T15:42:35.637Z,30.80
2018-06-29T15:43:35.650Z,30.69
2018-06-29T15:45:29.089Z,30.84
2018-06-29T15:46:29.118Z,30.80
2018-06-29T15:48:22.159Z,30.84
2018-06-29T15:49:22.172Z,30.77
2018-06-29T15:51:15.196Z,30.65
2018-06-29T15:52:15.233Z,30.73
2018-06-29T15:54:08.271Z,30.77
2018-06-29T15:55:08.306Z,30.79
2018-06-29T15:57:01.310Z,30.73
2018-06-29T15:58:01.339Z,30.69
2018-06-29T15:59:55.815Z,30.61
2018-06-29T16:00:55.832Z,30.57
2018-06-29T16:02:48.888Z,30.64
2018-06-29T16:03:48.888Z,30.70
2018-06-29T16:05:41.913Z,30.70
2018-06-29T16:06:41.970Z,30.69
2018-06-29T16:08:34.986Z,30.73
2018-06-29T16:09:34.999Z,30.80
2018-06-29T16:11:28.026Z,30.83
2018-06-29T16:12:28.067Z,30.69
2018-06-29T16:14:21.100Z,30.61
2018-06-29T16:15:21.114Z,30.54
2018-06-29T16:17:14.142Z,30.47
2018-06-29T16:18:14.174Z,30.47
2018-06-29T16:20:07.213Z,30.57
2018-06-29T16:21:07.228Z,30.58
2018-06-29T16:23:00.251Z,30.60
2018-06-29T16:24:00.282Z,30.65
2018-06-29T16:25:53.326Z,30.64
2018-06-29T16:26:53.338Z,30.60
2018-06-29T16:28:46.382Z,30.55
2018-06-29T16:29:46.394Z,30.54
2018-06-29T16:31:39.419Z,30.55
2018-06-29T16:32:39.451Z,30.58
2018-06-29T16:34:33.014Z,30.60
2018-06-29T16:35:33.030Z,30.69
2018-06-29T16:37:26.065Z,30.61
2018-06-29T16:38:26.077Z,30.65
2018-06-29T16:40:19.531Z,30.60
2018-06-29T16:41:19.541Z,30.62
2018-06-29T16:43:12.569Z,30.60
2018-06-29T16:44:12.601Z,30.57
2018-06-29T16:46:05.640Z,30.75
2018-06-29T16:47:05.654Z,30.58
2018-06-29T16:48:58.698Z,30.60
2018-06-29T16:49:58.711Z,30.49
2018-06-29T16:51:51.735Z,30.34
2018-06-29T16:52:51.774Z,30.49
2018-06-29T16:54:44.835Z,30.43
2018-06-29T16:55:44.849Z,30.35
2018-06-29T16:57:37.849Z,30.47
2018-06-29T16:58:37.884Z,30.57
2018-06-29T17:00:30.928Z,30.54
2018-06-29T17:01:30.938Z,30.45
2018-06-29T17:03:23.965Z,30.42
2018-06-29T17:04:23.994Z,30.43
2018-06-29T17:06:18.472Z,30.32
2018-06-29T17:07:18.487Z,30.23
2018-06-29T17:09:11.510Z,30.11
2018-06-29T17:10:11.540Z,30.08
2018-06-29T17:12:04.589Z,30.08
2018-06-29T17:13:04.601Z,29.97
2018-06-29T17:14:57.640Z,29.79
2018-06-29T17:15:57.723Z,29.73
2018-06-29T17:17:50.679Z,29.65
2018-06-29T17:18:50.887Z,29.63
2018-06-29T17:20:44.267Z,29.63
2018-06-29T17:21:44.279Z,29.65
2018-06-29T17:23:37.753Z,29.63
2018-06-29T17:24:37.744Z,29.42
2018-06-29T17:26:30.828Z,29.51
2018-06-29T17:27:30.802Z,29.57
2018-06-29T17:29:24.428Z,29.51
2018-06-29T17:30:24.396Z,29.57
2018-06-29T17:32:17.424Z,29.55
2018-06-29T17:33:17.427Z,29.53
2018-06-29T17:40:32.340Z,29.36
2018-06-29T17:41:32.346Z,29.30
2018-06-29T17:43:25.275Z,29.31
2018-06-29T17:44:25.301Z,29.15
2018-06-29T17:46:18.285Z,29.36
2018-06-29T17:47:18.250Z,29.37
2018-06-29T17:49:12.389Z,29.28
2018-06-29T17:50:12.417Z,29.26
2018-06-29T17:52:05.385Z,29.24
2018-06-29T17:53:05.373Z,29.27
2018-06-29T17:54:58.349Z,29.28
2018-06-29T17:55:58.326Z,29.15
2018-06-29T17:57:51.274Z,29.08
2018-06-29T17:58:51.280Z,29.18
2018-06-29T18:00:44.337Z,29.04
2018-06-29T18:01:44.270Z,28.96
2018-06-29T18:03:37.195Z,29.02
2018-06-29T18:04:37.228Z,29.18
2018-06-29T18:06:30.171Z,29.06
2018-06-29T18:07:30.181Z,29.04
2018-06-29T18:09:23.163Z,29.30
2018-06-29T18:10:23.193Z,29.37
2018-06-29T18:12:16.138Z,29.33
2018-06-29T18:13:16.211Z,29.30
2018-06-29T18:15:09.076Z,29.02
2018-06-29T18:16:09.187Z,29.04
2018-06-29T18:18:03.047Z,29.04
2018-06-29T18:19:03.128Z,29.14
2018-06-29T18:20:55.986Z,29.21
2018-06-29T18:21:56.015Z,29.09
2018-06-29T18:23:48.972Z,29.12
2018-06-29T18:24:48.966Z,29.04
2018-06-29T18:26:41.919Z,29.05
2018-06-29T18:27:41.926Z,29.00
2018-06-29T18:29:34.904Z,29.06
2018-06-29T18:30:34.882Z,28.93
2018-06-29T18:32:27.826Z,29.09
2018-06-29T18:33:27.835Z,29.11
2018-06-29T18:35:20.765Z,29.11
2018-06-29T18:36:20.790Z,29.11
2018-06-29T18:38:13.735Z,28.93
2018-06-29T18:39:13.750Z,28.81